Time;durP1;ratioP1;P1;durP2;ratioP2;P2;SDS_P1;SDS_P2;PMS_P1;PMS_P2;Temp;Humidity;BMP_temperature;BMP_pressure;BME280_temperature;BME280_humidity;BME280_pressure;Samples;Min_cycle;Max_cycle;Signal;HPM_P1;HPM_P2
2024/03/21 00:00:46;;;;;;;7.18;4.93;;;;;;;;;;5015946;28;20049;-85
2024/03/21 00:03:11;;;;;;;8.15;4.72;;;;;;;;;;5002132;28;20053;-85
2024/03/21 00:05:37;;;;;;;8.30;5.03;;;;;;;;;;5021700;28;20067;-84
2024/03/21 00:08:03;;;;;;;7.20;4.55;;;;;;;;;;5021010;28;20057;-83
2024/03/21 00:10:29;;;;;;;7.45;4.50;;;;;;;;;;5020441;28;20539;-85
2024/03/21 00:12:54;;;;;;;8.48;4.70;;;;;;;;;;5003745;28;20049;-85
2024/03/21 00:15:20;;;;;;;6.22;4.53;;;;;;;;;;5026529;28;20075;-85
2024/03/21 00:17:46;;;;;;;8.18;4.40;;;;;;;;;;5012261;28;20046;-85
2024/03/21 00:20:12;;;;;;;6.32;4.20;;;;;;;;;;5035872;28;20049;-85
2024/03/21 00:22:38;;;;;;;6.15;4.50;;;;;;;;;;5004681;28;20092;-85
2024/03/21 00:25:04;;;;;;;7.05;4.32;;;;;;;;;;5022300;28;20057;-85
2024/03/21 00:27:31;;;;;;;6.05;4.15;;;;;;;;;;5006235;28;20126;-85
2024/03/21 00:29:57;;;;;;;7.55;4.35;;;;;;;;;;5022816;28;20054;-86
2024/03/21 00:32:22;;;;;;;5.35;3.83;;;;;;;;;;5020746;28;20156;-85
2024/03/21 00:34:48;;;;;;;5.93;3.95;;;;;;;;;;5014593;28;20061;-82
2024/03/21 00:37:13;;;;;;;4.82;3.92;;;;;;;;;;5014453;28;20096;-82
2024/03/21 00:39:42;;;;;;;4.57;3.72;;;;;;;;;;5013899;28;20054;-82
2024/03/21 00:42:08;;;;;;;6.80;4.03;;;;;;;;;;5013760;28;20061;-85
2024/03/21 00:44:35;;;;;;;5.50;3.97;;;;;;;;;;5012734;28;20068;-83
2024/03/21 00:47:00;;;;;;;4.88;3.50;;;;;;;;;;5014759;28;20427;-85
2024/03/21 00:49:26;;;;;;;6.90;3.15;;;;;;;;;;5015264;28;20061;-84
2024/03/21 00:51:51;;;;;;;6.05;3.17;;;;;;;;;;5014569;28;20053;-85
2024/03/21 00:54:17;;;;;;;4.70;3.28;;;;;;;;;;4997814;28;20050;-84
2024/03/21 00:56:42;;;;;;;6.03;3.33;;;;;;;;;;4998176;28;20049;-85
2024/03/21 00:59:08;;;;;;;6.38;4.50;;;;;;;;;;4995662;28;20058;-84
2024/03/21 01:01:34;;;;;;;7.55;3.97;;;;;;;;;;5015883;28;20053;-84
2024/03/21 01:03:59;;;;;;;7.07;4.15;;;;;;;;;;5015813;28;20057;-83
2024/03/21 01:06:25;;;;;;;6.43;4.65;;;;;;;;;;5016314;28;20057;-83
2024/03/21 01:08:51;;;;;;;6.80;3.90;;;;;;;;;;5016348;28;20057;-82
2024/03/21 01:11:16;;;;;;;8.40;4.00;;;;;;;;;;5016748;28;20054;-83
2024/03/21 01:13:42;;;;;;;8.05;4.18;;;;;;;;;;4997683;28;20475;-83
2024/03/21 01:16:08;;;;;;;7.07;3.75;;;;;;;;;;5001523;28;20057;-83
2024/03/21 01:18:37;;;;;;;7.45;3.58;;;;;;;;;;5003066;28;20057;-84
2024/03/21 01:21:03;;;;;;;6.95;3.60;;;;;;;;;;5005349;28;20045;-83
2024/03/21 01:23:29;;;;;;;7.55;3.65;;;;;;;;;;5018547;28;20061;-83
2024/03/21 01:25:55;;;;;;;5.95;3.67;;;;;;;;;;5006879;28;20057;-83
2024/03/21 01:28:20;;;;;;;5.72;3.13;;;;;;;;;;5002822;28;20518;-83
2024/03/21 01:30:46;;;;;;;8.00;3.42;;;;;;;;;;5006185;28;20049;-84
2024/03/21 01:33:11;;;;;;;6.55;3.63;;;;;;;;;;5003748;28;20092;-83
2024/03/21 01:35:37;;;;;;;5.80;3.22;;;;;;;;;;5021687;28;20534;-83
2024/03/21 01:38:04;;;;;;;4.28;2.90;;;;;;;;;;5021704;28;20057;-85
2024/03/21 01:40:30;;;;;;;4.38;3.33;;;;;;;;;;5020762;28;20111;-85
2024/03/21 01:42:56;;;;;;;4.85;3.25;;;;;;;;;;5019611;28;20049;-85
2024/03/21 01:45:21;;;;;;;3.60;3.22;;;;;;;;;;5022978;28;20128;-84
2024/03/21 01:47:47;;;;;;;5.53;2.88;;;;;;;;;;5018719;28;20132;-84
2024/03/21 01:50:12;;;;;;;5.10;3.67;;;;;;;;;;5043370;28;20041;-84
2024/03/21 01:52:39;;;;;;;4.72;3.42;;;;;;;;;;5034091;28;20100;-84
2024/03/21 01:55:04;;;;;;;6.22;3.80;;;;;;;;;;5024145;28;20021;-83
2024/03/21 01:57:33;;;;;;;4.30;3.28;;;;;;;;;;5020697;28;20051;-84
2024/03/21 01:59:59;;;;;;;5.95;4.40;;;;;;;;;;5003332;28;20072;-84
2024/03/21 02:02:25;;;;;;;6.53;3.42;;;;;;;;;;5021391;28;20503;-83
2024/03/21 02:04:50;;;;;;;5.85;3.90;;;;;;;;;;5009777;28;20096;-83
2024/03/21 02:07:18;;;;;;;4.40;3.42;;;;;;;;;;5040812;28;20366;-83
2024/03/21 02:09:49;;;;;;;4.82;3.67;;;;;;;;;;5031970;28;20053;-85
2024/03/21 02:12:35;;;;;;;3.83;3.17;;;;;;;;;;5027770;28;20057;-85
2024/03/21 02:15:01;;;;;;;4.70;3.60;;;;;;;;;;5029163;28;20053;-85
2024/03/21 02:17:26;;;;;;;5.45;3.45;;;;;;;;;;5014722;28;20068;-85
2024/03/21 02:19:52;;;;;;;6.15;3.95;;;;;;;;;;5012145;28;20077;-84
2024/03/21 02:22:35;;;;;;;6.30;3.53;;;;;;;;;;5040019;28;20050;-83
2024/03/21 02:25:12;;;;;;;6.22;3.63;;;;;;;;;;5012862;28;20053;-83
2024/03/21 02:27:40;;;;;;;6.82;3.50;;;;;;;;;;5000443;28;20062;-86
2024/03/21 02:30:06;;;;;;;8.15;4.35;;;;;;;;;;5003374;28;20069;-84
2024/03/21 02:32:32;;;;;;;4.85;3.40;;;;;;;;;;5001263;28;20115;-86
2024/03/21 02:34:58;;;;;;;4.22;3.40;;;;;;;;;;5022764;28;20370;-86
2024/03/21 02:37:23;;;;;;;5.43;3.30;;;;;;;;;;5026661;28;20076;-86
2024/03/21 02:39:52;;;;;;;6.10;3.70;;;;;;;;;;5024640;28;20057;-85
2024/03/21 02:42:18;;;;;;;5.15;3.33;;;;;;;;;;5025713;28;20049;-85
2024/03/21 02:44:44;;;;;;;5.30;3.55;;;;;;;;;;5043587;28;20064;-85
2024/03/21 02:47:10;;;;;;;5.45;3.35;;;;;;;;;;5025812;28;20053;-85
2024/03/21 02:49:35;;;;;;;4.60;3.28;;;;;;;;;;5024103;28;20054;-86
2024/03/21 02:52:01;;;;;;;6.75;3.13;;;;;;;;;;5022808;28;20057;-85
2024/03/21 02:54:27;;;;;;;5.85;3.03;;;;;;;;;;5025378;28;20120;-86
2024/03/21 02:56:52;;;;;;;3.58;2.88;;;;;;;;;;5021806;28;20073;-84
2024/03/21 02:59:18;;;;;;;7.35;3.15;;;;;;;;;;5042331;28;20049;-83
2024/03/21 03:01:43;;;;;;;3.90;2.60;;;;;;;;;;5010031;28;20061;-83
2024/03/21 03:04:10;;;;;;;3.47;3.10;;;;;;;;;;5032251;28;20049;-83
2024/03/21 03:06:36;;;;;;;4.00;3.08;;;;;;;;;;5042632;28;20057;-83
2024/03/21 03:09:01;;;;;;;6.47;3.20;;;;;;;;;;5011845;28;20458;-83
2024/03/21 03:11:27;;;;;;;4.03;3.05;;;;;;;;;;5019882;28;20109;-84
2024/03/21 03:13:52;;;;;;;3.67;3.20;;;;;;;;;;5023216;28;20040;-84
2024/03/21 03:16:18;;;;;;;5.13;3.30;;;;;;;;;;5037950;28;20111;-85
2024/03/21 03:18:43;;;;;;;5.22;2.92;;;;;;;;;;5016182;28;20045;-85
2024/03/21 03:21:09;;;;;;;8.00;2.83;;;;;;;;;;5016866;28;20061;-86
2024/03/21 03:23:35;;;;;;;5.13;3.47;;;;;;;;;;5017179;28;20539;-86
2024/03/21 03:26:00;;;;;;;8.40;4.15;;;;;;;;;;5001347;28;20053;-85
2024/03/21 03:28:26;;;;;;;5.15;3.38;;;;;;;;;;5015699;28;20061;-87
2024/03/21 03:30:51;;;;;;;4.15;2.72;;;;;;;;;;5007349;28;20054;-86
2024/03/21 03:36:06;;;;;;;4.30;3.10;;;;;;;;;;5005827;28;20045;-86
2024/03/21 03:38:31;;;;;;;4.85;3.03;;;;;;;;;;5012546;28;20413;-86
2024/03/21 03:40:57;;;;;;;6.07;3.53;;;;;;;;;;5010115;28;20060;-86
2024/03/21 03:43:22;;;;;;;6.72;3.78;;;;;;;;;;5013354;28;20053;-87
2024/03/21 03:45:48;;;;;;;4.38;3.65;;;;;;;;;;5014212;28;20068;-86
2024/03/21 03:48:14;;;;;;;5.15;4.22;;;;;;;;;;4996129;28;20478;-85
2024/03/21 03:50:39;;;;;;;5.63;3.15;;;;;;;;;;5013191;28;20088;-86
2024/03/21 03:53:05;;;;;;;4.38;3.15;;;;;;;;;;5033776;28;20100;-86
2024/03/21 03:55:31;;;;;;;4.85;2.97;;;;;;;;;;5020666;28;20045;-86
2024/03/21 03:57:56;;;;;;;5.57;3.75;;;;;;;;;;5017407;28;20137;-85
2024/03/21 04:00:22;;;;;;;8.18;3.72;;;;;;;;;;5010183;28;20072;-88
2024/03/21 04:02:48;;;;;;;4.22;3.13;;;;;;;;;;5011258;28;20125;-89
2024/03/21 04:05:17;;;;;;;3.65;2.90;;;;;;;;;;4995534;28;20213;-88
2024/03/21 04:07:43;;;;;;;5.28;3.50;;;;;;;;;;5011636;28;20062;-88
2024/03/21 04:10:09;;;;;;;4.97;3.30;;;;;;;;;;4995934;28;20107;-88
2024/03/21 04:12:34;;;;;;;5.35;3.42;;;;;;;;;;5013975;28;20057;-87
2024/03/21 04:15:00;;;;;;;4.18;3.17;;;;;;;;;;4996015;28;20054;-81
2024/03/21 04:17:26;;;;;;;6.60;3.58;;;;;;;;;;5029473;28;20092;-86
2024/03/21 04:19:51;;;;;;;6.22;3.67;;;;;;;;;;4994677;28;20053;-86
2024/03/21 04:22:17;;;;;;;5.85;3.83;;;;;;;;;;4996086;28;20056;-86
2024/03/21 04:24:43;;;;;;;5.20;3.33;;;;;;;;;;5010330;28;20053;-85
2024/03/21 04:27:08;;;;;;;6.40;3.90;;;;;;;;;;5011002;28;20327;-85
2024/03/21 04:29:34;;;;;;;5.68;3.20;;;;;;;;;;5014906;28;20136;-86
2024/03/21 04:31:59;;;;;;;5.05;4.07;;;;;;;;;;4999463;28;20046;-86
2024/03/21 04:34:25;;;;;;;6.07;4.30;;;;;;;;;;5014598;28;20473;-86
2024/03/21 04:36:51;;;;;;;7.25;4.85;;;;;;;;;;4995271;28;20050;-86
2024/03/21 04:39:16;;;;;;;6.25;3.53;;;;;;;;;;5012650;28;20053;-86
2024/03/21 04:41:42;;;;;;;5.53;3.63;;;;;;;;;;5010865;28;20423;-86
2024/03/21 04:44:08;;;;;;;6.00;4.57;;;;;;;;;;5014121;28;20430;-86
2024/03/21 04:46:33;;;;;;;6.57;4.13;;;;;;;;;;4994711;28;20061;-87
2024/03/21 04:48:59;;;;;;;6.18;3.95;;;;;;;;;;5009157;28;20454;-86
2024/03/21 04:51:24;;;;;;;10.77;3.92;;;;;;;;;;5013350;28;20061;-87
2024/03/21 04:53:50;;;;;;;10.23;4.10;;;;;;;;;;4997763;28;20045;-87
2024/03/21 04:56:16;;;;;;;6.95;4.15;;;;;;;;;;4997311;28;20136;-87
2024/03/21 04:58:41;;;;;;;6.13;3.55;;;;;;;;;;4994436;28;20050;-87
2024/03/21 05:01:07;;;;;;;6.05;3.33;;;;;;;;;;5045498;28;20034;-88
2024/03/21 05:03:32;;;;;;;4.63;3.58;;;;;;;;;;5024959;28;20093;-86
2024/03/21 05:05:58;;;;;;;4.45;3.50;;;;;;;;;;5039724;28;20033;-86
2024/03/21 05:08:24;;;;;;;6.75;3.63;;;;;;;;;;5016150;28;20510;-84
2024/03/21 05:10:50;;;;;;;4.85;3.53;;;;;;;;;;5011551;28;20045;-85
2024/03/21 05:13:15;;;;;;;5.38;3.58;;;;;;;;;;5035144;28;20052;-85
2024/03/21 05:15:50;;;;;;;5.07;3.10;;;;;;;;;;5019777;28;20057;-85
2024/03/21 05:18:16;;;;;;;3.88;2.88;;;;;;;;;;5019487;28;20065;-83
2024/03/21 05:20:42;;;;;;;4.95;3.65;;;;;;;;;;5018007;28;20054;-85
2024/03/21 05:23:07;;;;;;;7.13;3.65;;;;;;;;;;5001804;28;20099;-87
2024/03/21 05:25:36;;;;;;;7.38;3.60;;;;;;;;;;5001232;28;20057;-88
2024/03/21 05:28:02;;;;;;;4.65;3.10;;;;;;;;;;5018209;28;20458;-89
2024/03/21 05:30:28;;;;;;;4.57;3.47;;;;;;;;;;5005080;28;20107;-89
2024/03/21 05:32:54;;;;;;;5.35;3.75;;;;;;;;;;5009976;28;20053;-89
2024/03/21 05:35:20;;;;;;;4.72;2.75;;;;;;;;;;5042707;28;20045;-88
2024/03/21 05:37:45;;;;;;;10.48;3.40;;;;;;;;;;5007245;28;20537;-88
2024/03/21 05:40:12;;;;;;;4.00;2.90;;;;;;;;;;5053938;28;20029;-90
2024/03/21 05:42:37;;;;;;;5.35;3.22;;;;;;;;;;5021320;28;20111;-87
2024/03/21 05:45:04;;;;;;;8.05;4.15;;;;;;;;;;5038031;28;20053;-87
2024/03/21 05:47:29;;;;;;;5.13;2.97;;;;;;;;;;5037896;28;20060;-86
2024/03/21 05:49:55;;;;;;;4.97;3.17;;;;;;;;;;5022979;28;20053;-87
2024/03/21 05:52:20;;;;;;;4.10;2.97;;;;;;;;;;5020790;28;20057;-86
2024/03/21 05:54:49;;;;;;;5.07;3.38;;;;;;;;;;5025843;28;20072;-83
2024/03/21 05:57:15;;;;;;;5.03;3.38;;;;;;;;;;5003435;28;20050;-90
2024/03/21 05:59:40;;;;;;;6.97;3.10;;;;;;;;;;5010659;28;20405;-87
2024/03/21 06:02:07;;;;;;;4.03;2.85;;;;;;;;;;5018927;28;20167;-86
2024/03/21 06:04:32;;;;;;;4.43;3.20;;;;;;;;;;5017337;28;20064;-88
2024/03/21 06:06:58;;;;;;;5.57;3.35;;;;;;;;;;5041054;28;20045;-88
2024/03/21 06:09:25;;;;;;;5.25;3.25;;;;;;;;;;5033749;28;20049;-88
2024/03/21 06:11:51;;;;;;;6.15;3.60;;;;;;;;;;5001527;28;20072;-86
2024/03/21 06:14:16;;;;;;;4.35;3.15;;;;;;;;;;5017683;28;20088;-87
2024/03/21 06:16:42;;;;;;;4.28;2.92;;;;;;;;;;5030458;28;20049;-84
2024/03/21 06:19:07;;;;;;;4.35;3.38;;;;;;;;;;5015971;28;20071;-85
2024/03/21 06:21:33;;;;;;;4.85;3.40;;;;;;;;;;5021681;28;20084;-85
2024/03/21 06:23:59;;;;;;;6.28;3.80;;;;;;;;;;5003004;28;20556;-86
2024/03/21 06:26:24;;;;;;;7.57;3.47;;;;;;;;;;5016353;28;20132;-86
2024/03/21 06:28:50;;;;;;;5.03;3.30;;;;;;;;;;5018691;28;20503;-84
2024/03/21 06:31:15;;;;;;;9.05;3.67;;;;;;;;;;5019367;28;20091;-83
2024/03/21 06:33:41;;;;;;;5.85;3.70;;;;;;;;;;5018007;28;20050;-84
2024/03/21 06:36:07;;;;;;;6.57;3.95;;;;;;;;;;5020649;28;20434;-84
2024/03/21 06:38:36;;;;;;;9.85;3.30;;;;;;;;;;5020420;28;20415;-84
2024/03/21 06:41:01;;;;;;;9.93;3.38;;;;;;;;;;5018786;28;20081;-85
2024/03/21 06:43:27;;;;;;;6.95;3.40;;;;;;;;;;5018177;28;20057;-84
2024/03/21 06:45:55;;;;;;;9.68;3.45;;;;;;;;;;5001921;28;20058;-85
2024/03/21 06:48:21;;;;;;;7.85;3.22;;;;;;;;;;5001861;28;20050;-85
2024/03/21 06:50:47;;;;;;;6.65;3.55;;;;;;;;;;5007017;28;20102;-85
2024/03/21 06:53:12;;;;;;;6.15;3.47;;;;;;;;;;5014354;28;20443;-85
2024/03/21 06:55:38;;;;;;;5.68;3.35;;;;;;;;;;5018776;28;20431;-84
2024/03/21 06:58:03;;;;;;;7.72;3.75;;;;;;;;;;5021579;28;20045;-84
2024/03/21 07:00:29;;;;;;;6.22;3.22;;;;;;;;;;5028522;28;20056;-85
2024/03/21 07:02:58;;;;;;;7.30;3.53;;;;;;;;;;5006757;28;20064;-82
2024/03/21 07:05:24;;;;;;;3.40;2.65;;;;;;;;;;5021143;28;20061;-83
2024/03/21 07:07:49;;;;;;;5.18;3.25;;;;;;;;;;4998505;28;20412;-83
2024/03/21 07:10:15;;;;;;;3.88;3.10;;;;;;;;;;5019310;28;20052;-83
2024/03/21 07:12:41;;;;;;;5.47;3.10;;;;;;;;;;5023970;28;20072;-85
2024/03/21 07:15:07;;;;;;;5.70;3.30;;;;;;;;;;5018821;28;20068;-84
2024/03/21 07:17:33;;;;;;;3.75;2.92;;;;;;;;;;5000051;28;20049;-87
2024/03/21 07:19:58;;;;;;;9.10;3.17;;;;;;;;;;5000684;28;20866;-83
2024/03/21 07:22:24;;;;;;;4.80;2.67;;;;;;;;;;5020642;28;20072;-83
2024/03/21 07:24:50;;;;;;;4.43;2.90;;;;;;;;;;5016601;28;20072;-83
2024/03/21 07:27:16;;;;;;;4.90;3.88;;;;;;;;;;5017468;28;20499;-82
2024/03/21 07:29:42;;;;;;;7.18;3.00;;;;;;;;;;5016183;28;20053;-79
2024/03/21 07:32:08;;;;;;;6.45;2.80;;;;;;;;;;5027322;28;20060;-80
2024/03/21 07:34:34;;;;;;;5.07;3.05;;;;;;;;;;5017929;28;20144;-82
2024/03/21 07:36:59;;;;;;;4.20;2.42;;;;;;;;;;5002110;28;20064;-81
2024/03/21 07:39:25;;;;;;;7.82;3.17;;;;;;;;;;5016221;28;20088;-81
2024/03/21 07:41:51;;;;;;;6.45;3.10;;;;;;;;;;5001834;28;20164;-80
2024/03/21 07:44:16;;;;;;;6.03;3.28;;;;;;;;;;5016972;28;20484;-80
2024/03/21 07:46:42;;;;;;;7.70;3.63;;;;;;;;;;5032915;28;20060;-81
2024/03/21 07:49:08;;;;;;;8.43;3.42;;;;;;;;;;4998455;28;20057;-81
2024/03/21 07:51:37;;;;;;;5.57;3.38;;;;;;;;;;4998800;28;20467;-82
2024/03/21 07:54:03;;;;;;;6.00;3.30;;;;;;;;;;4996560;28;20042;-81
2024/03/21 07:56:28;;;;;;;5.50;3.80;;;;;;;;;;5016644;28;20128;-80
2024/03/21 07:58:54;;;;;;;9.73;4.15;;;;;;;;;;5015619;28;20473;-82
2024/03/21 08:01:21;;;;;;;8.82;3.20;;;;;;;;;;5031525;28;20096;-81
2024/03/21 08:03:46;;;;;;;4.57;3.55;;;;;;;;;;4997312;28;20076;-76
2024/03/21 08:06:12;;;;;;;5.80;3.90;;;;;;;;;;5013086;28;20053;-77
2024/03/21 08:08:38;;;;;;;4.38;3.50;;;;;;;;;;5015510;28;20088;-80
2024/03/21 08:11:03;;;;;;;4.63;4.05;;;;;;;;;;5002982;28;20075;-76
2024/03/21 08:13:29;;;;;;;13.57;6.68;;;;;;;;;;5042833;28;20105;-75
2024/03/21 08:15:56;;;;;;;13.25;7.10;;;;;;;;;;5035335;28;20065;-76
2024/03/21 08:18:22;;;;;;;7.53;4.57;;;;;;;;;;5033202;28;20063;-75
2024/03/21 08:20:48;;;;;;;6.57;4.32;;;;;;;;;;5032633;28;20034;-75
2024/03/21 08:23:14;;;;;;;4.78;3.80;;;;;;;;;;4999809;28;20111;-77
2024/03/21 08:25:39;;;;;;;5.03;3.38;;;;;;;;;;4995409;28;20060;-77
2024/03/21 08:28:05;;;;;;;5.70;3.30;;;;;;;;;;4996769;28;20057;-78
2024/03/21 08:30:30;;;;;;;5.80;3.05;;;;;;;;;;5026523;28;20052;-80
2024/03/21 08:32:56;;;;;;;5.78;3.47;;;;;;;;;;5021752;28;20047;-80
2024/03/21 08:35:21;;;;;;;4.80;2.95;;;;;;;;;;5009161;28;20464;-81
2024/03/21 08:37:47;;;;;;;8.52;3.58;;;;;;;;;;5027990;28;20493;-82
2024/03/21 08:40:15;;;;;;;4.38;3.17;;;;;;;;;;5015868;28;20110;-84
2024/03/21 08:42:41;;;;;;;4.05;3.42;;;;;;;;;;5011096;28;20576;-85
2024/03/21 08:45:09;;;;;;;11.27;3.60;;;;;;;;;;5008516;28;20058;-86
2024/03/21 08:47:37;;;;;;;4.97;3.10;;;;;;;;;;5014930;28;20054;-81
2024/03/21 08:50:03;;;;;;;10.93;3.45;;;;;;;;;;4998981;28;20057;-85
2024/03/21 08:52:29;;;;;;;10.32;4.03;;;;;;;;;;5015845;28;20053;-84
2024/03/21 08:54:54;;;;;;;7.25;3.03;;;;;;;;;;5012418;28;20076;-85
2024/03/21 08:57:20;;;;;;;7.05;3.50;;;;;;;;;;4995797;28;20053;-82
2024/03/21 08:59:47;;;;;;;5.18;3.78;;;;;;;;;;5014706;28;20114;-81
2024/03/21 09:02:14;;;;;;;5.90;3.97;;;;;;;;;;5013639;28;20052;-82
2024/03/21 09:04:39;;;;;;;6.28;3.70;;;;;;;;;;4999563;28;20547;-81
2024/03/21 09:07:06;;;;;;;4.63;3.50;;;;;;;;;;5015750;28;20049;-81
2024/03/21 09:09:34;;;;;;;8.23;3.38;;;;;;;;;;5006633;28;20088;-84
2024/03/21 09:12:00;;;;;;;6.00;3.55;;;;;;;;;;5024220;28;20057;-84
2024/03/21 09:14:25;;;;;;;6.25;3.30;;;;;;;;;;4998631;28;20503;-84
2024/03/21 09:16:51;;;;;;;8.85;3.85;;;;;;;;;;5025302;28;20046;-83
2024/03/21 09:19:16;;;;;;;9.82;3.70;;;;;;;;;;5014982;28;20057;-82
2024/03/21 09:21:42;;;;;;;8.13;4.18;;;;;;;;;;5014906;28;20050;-85
2024/03/21 09:24:08;;;;;;;6.03;4.75;;;;;;;;;;4998090;28;20060;-83
2024/03/21 09:26:34;;;;;;;6.82;3.75;;;;;;;;;;5013925;28;20058;-83
2024/03/21 09:29:00;;;;;;;7.97;3.78;;;;;;;;;;5030490;28;20058;-83
2024/03/21 09:31:26;;;;;;;7.03;4.35;;;;;;;;;;5011345;28;20057;-80
2024/03/21 09:33:51;;;;;;;9.43;4.38;;;;;;;;;;5014246;28;20082;-78
2024/03/21 09:36:17;;;;;;;7.03;4.05;;;;;;;;;;5006777;28;20488;-78
2024/03/21 09:38:43;;;;;;;8.70;4.20;;;;;;;;;;5009588;28;20109;-79
2024/03/21 09:41:09;;;;;;;7.95;3.58;;;;;;;;;;5012740;28;20145;-78
2024/03/21 09:43:38;;;;;;;5.93;4.10;;;;;;;;;;5018059;28;20061;-79
2024/03/21 09:46:04;;;;;;;6.32;4.15;;;;;;;;;;5016800;28;20062;-78
2024/03/21 09:48:32;;;;;;;6.75;4.68;;;;;;;;;;4999089;28;20061;-77
2024/03/21 09:50:58;;;;;;;6.85;4.40;;;;;;;;;;5023414;28;20037;-86
2024/03/21 09:53:24;;;;;;;7.22;4.38;;;;;;;;;;5029526;28;20061;-85
2024/03/21 09:55:50;;;;;;;8.23;4.88;;;;;;;;;;5003159;28;20057;-86
2024/03/21 09:58:16;;;;;;;5.10;3.70;;;;;;;;;;5007204;28;20049;-86
2024/03/21 10:00:42;;;;;;;5.15;4.10;;;;;;;;;;5021123;28;20419;-82
2024/03/21 10:03:13;;;;;;;5.47;4.07;;;;;;;;;;5011316;28;20045;-83
2024/03/21 10:05:42;;;;;;;9.10;4.10;;;;;;;;;;4996217;28;20752;-82
2024/03/21 10:08:08;;;;;;;7.10;5.13;;;;;;;;;;5007885;28;20061;-82
2024/03/21 10:10:34;;;;;;;9.40;5.47;;;;;;;;;;5009968;28;20061;-81
2024/03/21 10:13:00;;;;;;;9.65;6.00;;;;;;;;;;5010465;28;20057;-82
2024/03/21 10:15:25;;;;;;;11.07;6.75;;;;;;;;;;5010960;28;20054;-82
2024/03/21 10:17:51;;;;;;;6.97;5.18;;;;;;;;;;5013162;28;20125;-83
2024/03/21 10:20:17;;;;;;;9.75;5.40;;;;;;;;;;4993813;28;20074;-83
2024/03/21 10:22:43;;;;;;;9.88;5.32;;;;;;;;;;5018915;28;20058;-83
2024/03/21 10:25:09;;;;;;;8.27;6.03;;;;;;;;;;5024764;28;20155;-83
2024/03/21 10:27:36;;;;;;;11.13;5.45;;;;;;;;;;4999043;28;20061;-83
2024/03/21 10:30:02;;;;;;;11.43;5.88;;;;;;;;;;5016357;28;20103;-83
2024/03/21 10:32:28;;;;;;;12.70;6.03;;;;;;;;;;5003109;28;20053;-83
2024/03/21 10:34:53;;;;;;;9.88;6.05;;;;;;;;;;5012660;28;20411;-83
2024/03/21 10:37:20;;;;;;;11.70;6.47;;;;;;;;;;5027793;28;20053;-82
2024/03/21 10:39:46;;;;;;;13.13;6.80;;;;;;;;;;5011593;28;20134;-83
2024/03/21 10:42:20;;;;;;;13.82;6.38;;;;;;;;;;5003395;28;20057;-83
2024/03/21 10:44:47;;;;;;;11.23;5.63;;;;;;;;;;4996570;28;20428;-82
2024/03/21 10:47:13;;;;;;;9.32;5.38;;;;;;;;;;5009998;28;20053;-82
2024/03/21 10:49:40;;;;;;;6.80;5.43;;;;;;;;;;4998276;28;20063;-82
2024/03/21 10:52:06;;;;;;;7.38;5.60;;;;;;;;;;5015362;28;20049;-81
2024/03/21 10:54:38;;;;;;;8.80;5.95;;;;;;;;;;5027695;28;20053;-82
2024/03/21 10:57:29;;;;;;;9.43;5.43;;;;;;;;;;5026324;28;20050;-82
2024/03/21 10:59:56;;;;;;;8.73;6.05;;;;;;;;;;5038343;28;20030;-82
2024/03/21 11:02:21;;;;;;;7.32;5.43;;;;;;;;;;5038570;28;20038;-78
2024/03/21 11:08:28;;;;;;;8.32;4.93;;;;;;;;;;5048943;28;20078;-85
2024/03/21 11:10:54;;;;;;;8.80;4.90;;;;;;;;;;5030680;28;20054;-81
2024/03/21 11:13:22;;;;;;;7.63;4.70;;;;;;;;;;5030410;28;20060;-81
2024/03/21 11:15:47;;;;;;;10.27;5.55;;;;;;;;;;5021154;28;20053;-81
2024/03/21 11:18:13;;;;;;;8.00;5.00;;;;;;;;;;4994194;28;20054;-78
2024/03/21 11:20:39;;;;;;;6.57;4.20;;;;;;;;;;5011620;28;20073;-81
2024/03/21 11:23:05;;;;;;;8.15;5.57;;;;;;;;;;5002882;28;20111;-79
2024/03/21 11:25:31;;;;;;;7.72;4.82;;;;;;;;;;5012279;28;20045;-78
2024/03/21 11:27:56;;;;;;;9.32;6.30;;;;;;;;;;5007678;28;20119;-82
2024/03/21 11:30:22;;;;;;;8.30;7.40;;;;;;;;;;5008232;28;20053;-81
2024/03/21 11:32:48;;;;;;;12.02;7.80;;;;;;;;;;5012629;28;20054;-82
2024/03/21 11:35:13;;;;;;;12.60;8.52;;;;;;;;;;5034753;28;20290;-82
2024/03/21 11:37:39;;;;;;;11.10;8.15;;;;;;;;;;5014512;28;20298;-82
2024/03/21 11:40:05;;;;;;;11.95;7.88;;;;;;;;;;5038133;28;20053;-80
2024/03/21 11:42:36;;;;;;;11.13;8.27;;;;;;;;;;5025867;28;20198;-80
2024/03/21 11:45:02;;;;;;;11.90;9.18;;;;;;;;;;5005316;28;20045;-83
2024/03/21 11:47:28;;;;;;;11.45;8.30;;;;;;;;;;5016164;28;20495;-79
2024/03/21 11:49:54;;;;;;;13.27;8.05;;;;;;;;;;5017786;28;20059;-83
2024/03/21 11:52:20;;;;;;;10.15;7.43;;;;;;;;;;5032894;28;20113;-83
2024/03/21 11:54:46;;;;;;;12.57;7.65;;;;;;;;;;5025313;28;20060;-83
2024/03/21 11:57:12;;;;;;;9.20;8.20;;;;;;;;;;4996366;28;20077;-83
2024/03/21 11:59:41;;;;;;;11.52;7.30;;;;;;;;;;5038466;28;20046;-84
2024/03/21 12:02:10;;;;;;;12.45;8.63;;;;;;;;;;5014678;28;20045;-82
2024/03/21 12:04:35;;;;;;;10.88;8.32;;;;;;;;;;5009443;28;20060;-82
2024/03/21 12:07:01;;;;;;;11.93;8.35;;;;;;;;;;5012751;28;20439;-82
2024/03/21 12:09:27;;;;;;;10.55;8.10;;;;;;;;;;4997828;28;20065;-83
2024/03/21 12:11:52;;;;;;;11.13;8.13;;;;;;;;;;5015467;28;20057;-82
2024/03/21 12:14:18;;;;;;;12.02;8.88;;;;;;;;;;5014871;28;20085;-82
2024/03/21 12:16:43;;;;;;;11.77;9.32;;;;;;;;;;5015685;28;20049;-82
2024/03/21 12:19:09;;;;;;;11.98;9.32;;;;;;;;;;5031929;28;20064;-82
2024/03/21 12:21:34;;;;;;;14.27;10.35;;;;;;;;;;4999779;28;20057;-83
2024/03/21 12:24:00;;;;;;;12.73;9.50;;;;;;;;;;5016009;28;20065;-82
2024/03/21 12:26:26;;;;;;;13.38;10.38;;;;;;;;;;5016072;28;20089;-83
2024/03/21 12:28:52;;;;;;;14.70;11.50;;;;;;;;;;5008199;28;20054;-83
2024/03/21 12:31:17;;;;;;;14.45;10.85;;;;;;;;;;5002602;28;20171;-83
2024/03/21 12:33:44;;;;;;;12.00;10.27;;;;;;;;;;5017903;28;20054;-82
2024/03/21 12:36:10;;;;;;;11.90;9.90;;;;;;;;;;5018202;28;20068;-83
2024/03/21 12:38:36;;;;;;;13.48;9.07;;;;;;;;;;5001312;28;20458;-84
2024/03/21 12:41:02;;;;;;;14.35;9.05;;;;;;;;;;5015457;28;20112;-83
2024/03/21 12:43:28;;;;;;;16.45;9.90;;;;;;;;;;4999022;28;20060;-83
2024/03/21 12:45:55;;;;;;;11.52;8.57;;;;;;;;;;5001148;28;20057;-82
2024/03/21 12:48:23;;;;;;;10.68;9.05;;;;;;;;;;5015461;28;20054;-82
2024/03/21 12:50:49;;;;;;;10.13;7.25;;;;;;;;;;5015503;28;20049;-82
2024/03/21 12:53:17;;;;;;;14.70;8.85;;;;;;;;;;4997098;28;20054;-82
2024/03/21 12:55:42;;;;;;;8.93;7.90;;;;;;;;;;4998778;28;20061;-82
2024/03/21 12:58:09;;;;;;;10.50;8.25;;;;;;;;;;5017867;28;20058;-81
2024/03/21 13:00:35;;;;;;;10.38;7.15;;;;;;;;;;5017435;28;20111;-82
2024/03/21 13:03:00;;;;;;;7.40;6.22;;;;;;;;;;5015420;28;20053;-82
2024/03/21 13:05:26;;;;;;;8.52;7.63;;;;;;;;;;4998983;28;20069;-82
2024/03/21 13:07:52;;;;;;;11.68;6.30;;;;;;;;;;5015408;28;20128;-81
2024/03/21 13:10:17;;;;;;;8.65;6.30;;;;;;;;;;5015098;28;20045;-82
2024/03/21 13:12:43;;;;;;;7.38;6.32;;;;;;;;;;5031874;28;20057;-82
2024/03/21 13:15:09;;;;;;;11.90;7.60;;;;;;;;;;5015439;28;20041;-82
2024/03/21 13:17:34;;;;;;;19.42;12.30;;;;;;;;;;5016111;28;20096;-82
2024/03/21 13:20:00;;;;;;;18.40;14.18;;;;;;;;;;5015185;28;20440;-82
2024/03/21 13:22:26;;;;;;;18.58;15.00;;;;;;;;;;5013762;28;20054;-82
2024/03/21 13:24:53;;;;;;;20.88;15.85;;;;;;;;;;5017696;28;20054;-82
2024/03/21 13:27:26;;;;;;;22.10;16.67;;;;;;;;;;5019110;28;20049;-82
2024/03/21 13:29:54;;;;;;;24.55;18.58;;;;;;;;;;5019257;28;20049;-82
2024/03/21 13:32:20;;;;;;;25.88;19.15;;;;;;;;;;5019548;28;20061;-82
2024/03/21 13:34:48;;;;;;;25.15;19.55;;;;;;;;;;5002452;28;20128;-82
2024/03/21 13:37:13;;;;;;;37.55;20.90;;;;;;;;;;5002396;28;20125;-81
2024/03/21 13:39:42;;;;;;;31.02;20.13;;;;;;;;;;5003166;28;20145;-82
2024/03/21 13:42:08;;;;;;;31.30;21.75;;;;;;;;;;5018744;28;20045;-82
2024/03/21 13:44:34;;;;;;;26.50;20.13;;;;;;;;;;5018865;28;20049;-81
2024/03/21 13:47:00;;;;;;;29.15;21.52;;;;;;;;;;5024773;28;20064;-83
2024/03/21 13:49:26;;;;;;;33.28;22.25;;;;;;;;;;5024392;28;20052;-81
2024/03/21 13:51:54;;;;;;;31.50;21.83;;;;;;;;;;5024263;28;20086;-82
2024/03/21 13:54:20;;;;;;;29.33;21.80;;;;;;;;;;5028494;28;20481;-81
2024/03/21 13:56:45;;;;;;;31.80;21.80;;;;;;;;;;5003206;28;20041;-80
2024/03/21 13:59:11;;;;;;;37.88;22.38;;;;;;;;;;5020398;28;20049;-82
2024/03/21 14:01:37;;;;;;;33.67;22.40;;;;;;;;;;5018378;28;20053;-80
2024/03/21 14:04:03;;;;;;;32.20;22.50;;;;;;;;;;5002428;28;20061;-81
2024/03/21 14:06:29;;;;;;;30.80;21.05;;;;;;;;;;5018432;28;20061;-81
2024/03/21 14:08:55;;;;;;;29.98;19.48;;;;;;;;;;5001935;28;20073;-82
2024/03/21 14:11:20;;;;;;;33.85;23.38;;;;;;;;;;5025098;28;20054;-82
2024/03/21 14:13:47;;;;;;;33.55;22.63;;;;;;;;;;5034698;28;20132;-82
2024/03/21 14:16:12;;;;;;;32.33;22.10;;;;;;;;;;5017958;28;20503;-81
2024/03/21 14:18:38;;;;;;;36.20;22.52;;;;;;;;;;5007920;28;20046;-81
2024/03/21 14:21:04;;;;;;;34.20;21.63;;;;;;;;;;5021764;28;20132;-81
2024/03/21 14:23:31;;;;;;;29.98;21.42;;;;;;;;;;5017685;28;20065;-81
2024/03/21 14:25:57;;;;;;;34.58;21.65;;;;;;;;;;5002247;28;20053;-81
2024/03/21 14:28:23;;;;;;;23.88;18.75;;;;;;;;;;5018549;28;20054;-82
2024/03/21 14:30:48;;;;;;;27.40;19.52;;;;;;;;;;5019258;28;20368;-82
2024/03/21 14:33:14;;;;;;;25.45;18.00;;;;;;;;;;5020106;28;20052;-83
2024/03/21 14:35:40;;;;;;;24.77;17.33;;;;;;;;;;5003375;28;20059;-82
2024/03/21 14:38:06;;;;;;;24.52;17.50;;;;;;;;;;5003960;28;20053;-81